sensor_id;sensor_type;location;lat;lon;timestamp;pressure;altitude;pressure_sealevel;temperature;humidity
54439;BME280;40347;53.848;27.498;2023-08-17T00:00:39;1020.4;;;22.1;78.4
54439;BME280;40347;53.848;27.498;2023-08-17T00:05:41;1020.4;;;22.1;78.6
54439;BME280;40347;53.848;27.498;2023-08-17T00:10:21;1020.4;;;22.1;78.9
54439;BME280;40347;53.848;27.498;2023-08-17T00:15:21;1020.4;;;22;79.3
54439;BME280;40347;53.848;27.498;2023-08-17T00:20:21;1020.4;;;22;79.2
54439;BME280;40347;53.848;27.498;2023-08-17T00:25:47;1020.4;;;21.9;79.5
54439;BME280;40347;53.848;27.498;2023-08-17T00:30:21;1020.4;;;21.9;79.7
54439;BME280;40347;53.848;27.498;2023-08-17T00:35:21;1020.4;;;21.8;80
54439;BME280;40347;53.848;27.498;2023-08-17T00:40:43;1020.5;;;21.8;80.2
54439;BME280;40347;53.848;27.498;2023-08-17T00:45:57;1020.5;;;21.8;80.5
54439;BME280;40347;53.848;27.498;2023-08-17T00:50:35;1020.5;;;21.8;80.3
54439;BME280;40347;53.848;27.498;2023-08-17T00:55:33;1020.5;;;21.7;80.4
54439;BME280;40347;53.848;27.498;2023-08-17T01:00:21;1020.5;;;21.7;80.8
54439;BME280;40347;53.848;27.498;2023-08-17T01:05:41;1020.5;;;21.6;81.1
54439;BME280;40347;53.848;27.498;2023-08-17T01:10:21;1020.5;;;21.6;81.2
54439;BME280;40347;53.848;27.498;2023-08-17T01:15:31;1020.5;;;21.6;81.4
54439;BME280;40347;53.848;27.498;2023-08-17T01:20:21;1020.5;;;21.6;81
54439;BME280;40347;53.848;27.498;2023-08-17T01:25:21;1020.5;;;21.5;81.3
54439;BME280;40347;53.848;27.498;2023-08-17T01:30:21;1020.6;;;21.5;81.4
54439;BME280;40347;53.848;27.498;2023-08-17T01:35:28;1020.6;;;21.5;81.7
54439;BME280;40347;53.848;27.498;2023-08-17T01:40:21;1020.6;;;21.5;81.7
54439;BME280;40347;53.848;27.498;2023-08-17T01:45:43;1020.6;;;21.4;81.7
54439;BME280;40347;53.848;27.498;2023-08-17T01:50:43;1020.6;;;21.4;81.6
54439;BME280;40347;53.848;27.498;2023-08-17T01:55:35;1020.6;;;21.3;81.8
54439;BME280;40347;53.848;27.498;2023-08-17T02:00:39;1020.6;;;21.3;82.2
54439;BME280;40347;53.848;27.498;2023-08-17T02:05:21;1020.6;;;21.3;82.3
54439;BME280;40347;53.848;27.498;2023-08-17T02:10:21;1020.6;;;21.3;82.3
54439;BME280;40347;53.848;27.498;2023-08-17T02:15:29;1020.6;;;21.2;82.4
54439;BME280;40347;53.848;27.498;2023-08-17T02:20:21;1020.6;;;21.2;82.1
54439;BME280;40347;53.848;27.498;2023-08-17T02:25:41;1020.6;;;21.2;82.6
54439;BME280;40347;53.848;27.498;2023-08-17T02:30:21;1020.6;;;21.1;82.8
54439;BME280;40347;53.848;27.498;2023-08-17T02:35:21;1020.6;;;21.2;82.9
54439;BME280;40347;53.848;27.498;2023-08-17T02:40:27;1020.6;;;21.2;82.8
54439;BME280;40347;53.848;27.498;2023-08-17T02:45:35;1020.5;;;21.1;82.8
54439;BME280;40347;53.848;27.498;2023-08-17T02:50:27;1020.5;;;21.1;82.7
54439;BME280;40347;53.848;27.498;2023-08-17T02:55:21;1020.6;;;21.1;82.8
54439;BME280;40347;53.848;27.498;2023-08-17T03:01:05;1020.6;;;21.1;83
54439;BME280;40347;53.848;27.498;2023-08-17T03:05:57;1020.6;;;21.1;82.9
54439;BME280;40347;53.848;27.498;2023-08-17T03:10:22;1020.5;;;21.2;82.6
54439;BME280;40347;53.848;27.498;2023-08-17T03:15:21;1020.5;;;21.2;82.6
54439;BME280;40347;53.848;27.498;2023-08-17T03:20:44;1020.6;;;21.2;82.2
54439;BME280;40347;53.848;27.498;2023-08-17T03:25:29;1020.6;;;21.3;82.6
54439;BME280;40347;53.848;27.498;2023-08-17T03:30:35;1020.7;;;21.3;82.4
54439;BME280;40347;53.848;27.498;2023-08-17T03:35:21;1020.7;;;21.4;82.2
54439;BME280;40347;53.848;27.498;2023-08-17T03:40:33;1020.7;;;21.5;81.7
54439;BME280;40347;53.848;27.498;2023-08-17T03:45:21;1020.8;;;21.6;81.6
54439;BME280;40347;53.848;27.498;2023-08-17T03:50:33;1020.7;;;21.7;81.2
54439;BME280;40347;53.848;27.498;2023-08-17T03:55:33;1020.7;;;21.9;80.9
54439;BME280;40347;53.848;27.498;2023-08-17T04:00:21;1020.7;;;22;80.5
54439;BME280;40347;53.848;27.498;2023-08-17T04:05:45;1020.7;;;22.1;80.4
54439;BME280;40347;53.848;27.498;2023-08-17T04:10:31;1020.6;;;22.2;79.9
54439;BME280;40347;53.848;27.498;2023-08-17T04:15:21;1020.7;;;22.3;79.9
54439;BME280;40347;53.848;27.498;2023-08-17T04:20:21;1020.6;;;22.4;79.4
54439;BME280;40347;53.848;27.498;2023-08-17T04:25:33;1020.6;;;22.8;78.5
54439;BME280;40347;53.848;27.498;2023-08-17T04:30:21;1020.6;;;23.1;77.1
54439;BME280;40347;53.848;27.498;2023-08-17T04:35:35;1020.6;;;23.3;76.6
54439;BME280;40347;53.848;27.498;2023-08-17T04:40:21;1020.6;;;23.4;76.1
54439;BME280;40347;53.848;27.498;2023-08-17T04:45:33;1020.6;;;23.5;75.8
54439;BME280;40347;53.848;27.498;2023-08-17T04:50:57;1020.6;;;23.6;75.1
54439;BME280;40347;53.848;27.498;2023-08-17T04:55:35;1020.6;;;23.9;74.4
54439;BME280;40347;53.848;27.498;2023-08-17T05:00:41;1020.6;;;24.2;73.6
54439;BME280;40347;53.848;27.498;2023-08-17T05:05:29;1020.6;;;24.4;72.5
54439;BME280;40347;53.848;27.498;2023-08-17T05:10:33;1020.6;;;24.7;72
54439;BME280;40347;53.848;27.498;2023-08-17T05:15:41;1020.6;;;24.9;71.4
54439;BME280;40347;53.848;27.498;2023-08-17T05:20:21;1020.6;;;25.2;70.6
54439;BME280;40347;53.848;27.498;2023-08-17T05:25:27;1020.6;;;25.9;68.6
54439;BME280;40347;53.848;27.498;2023-08-17T05:30:35;1020.7;;;26.3;67.6
54439;BME280;40347;53.848;27.498;2023-08-17T05:35:29;1020.7;;;26.6;66.3
54439;BME280;40347;53.848;27.498;2023-08-17T05:40:29;1020.7;;;26.8;65.5
54439;BME280;40347;53.848;27.498;2023-08-17T05:45:35;1020.7;;;27;64.7
54439;BME280;40347;53.848;27.498;2023-08-17T05:50:33;1020.7;;;27.2;63.8
54439;BME280;40347;53.848;27.498;2023-08-17T05:55:33;1020.7;;;27.4;63.7
54439;BME280;40347;53.848;27.498;2023-08-17T06:00:21;1020.7;;;27.4;62.9
54439;BME280;40347;53.848;27.498;2023-08-17T06:05:37;1020.7;;;27.5;62.3
54439;BME280;40347;53.848;27.498;2023-08-17T06:10:29;1020.7;;;27.6;62.1
54439;BME280;40347;53.848;27.498;2023-08-17T06:15:35;1020.7;;;27.7;61.6
54439;BME280;40347;53.848;27.498;2023-08-17T06:20:35;1020.7;;;27.7;61.9
54439;BME280;40347;53.848;27.498;2023-08-17T06:25:21;1020.7;;;27.5;61.9
54439;BME280;40347;53.848;27.498;2023-08-17T06:30:41;1020.7;;;27.2;62.6
54439;BME280;40347;53.848;27.498;2023-08-17T06:35:27;1020.8;;;26.9;63.3
54439;BME280;40347;53.848;27.498;2023-08-17T06:40:29;1020.9;;;26.7;63.9
54439;BME280;40347;53.848;27.498;2023-08-17T06:45:21;1020.9;;;26.6;64.1
54439;BME280;40347;53.848;27.498;2023-08-17T06:50:21;1020.9;;;26.7;64.1
54439;BME280;40347;53.848;27.498;2023-08-17T06:55:33;1020.9;;;26.9;63.7
54439;BME280;40347;53.848;27.498;2023-08-17T07:00:39;1020.9;;;27.1;63.1
54439;BME280;40347;53.848;27.498;2023-08-17T07:05:33;1020.9;;;27.4;62.8
54439;BME280;40347;53.848;27.498;2023-08-17T07:10:27;1020.9;;;27.8;62.3
54439;BME280;40347;53.848;27.498;2023-08-17T07:15:21;1021;;;28.1;61.6
54439;BME280;40347;53.848;27.498;2023-08-17T07:20:33;1020.9;;;28.3;60.6
54439;BME280;40347;53.848;27.498;2023-08-17T07:25:48;1021;;;28.6;60.2
54439;BME280;40347;53.848;27.498;2023-08-17T07:30:21;1020.9;;;28.7;59.5
54439;BME280;40347;53.848;27.498;2023-08-17T07:35:35;1020.9;;;28.7;59
54439;BME280;40347;53.848;27.498;2023-08-17T07:40:27;1021;;;28.7;58.8
54439;BME280;40347;53.848;27.498;2023-08-17T07:45:57;1021;;;28.8;58.8
54439;BME280;40347;53.848;27.498;2023-08-17T07:50:29;1021;;;28.7;58.7
54439;BME280;40347;53.848;27.498;2023-08-17T07:55:21;1021;;;28.7;58.5
54439;BME280;40347;53.848;27.498;2023-08-17T08:00:47;1020.9;;;28.7;58.2
54439;BME280;40347;53.848;27.498;2023-08-17T08:05:21;1020.9;;;28.7;58.2
54439;BME280;40347;53.848;27.498;2023-08-17T08:10:21;1020.9;;;28.8;58
54439;BME280;40347;53.848;27.498;2023-08-17T08:15:43;1020.9;;;28.9;57.6
54439;BME280;40347;53.848;27.498;2023-08-17T08:20:21;1020.8;;;28.8;57.2
54439;BME280;40347;53.848;27.498;2023-08-17T08:25:43;1020.8;;;28.9;57.3
54439;BME280;40347;53.848;27.498;2023-08-17T08:30:21;1020.8;;;29;57.3
54439;BME280;40347;53.848;27.498;2023-08-17T08:35:27;1020.8;;;29;57
54439;BME280;40347;53.848;27.498;2023-08-17T08:40:35;1020.8;;;29.1;57.1
54439;BME280;40347;53.848;27.498;2023-08-17T08:45:28;1020.8;;;29.1;57.3
54439;BME280;40347;53.848;27.498;2023-08-17T08:50:40;1020.8;;;29.2;56.9
54439;BME280;40347;53.848;27.498;2023-08-17T08:55:30;1020.8;;;29.2;56.5
54439;BME280;40347;53.848;27.498;2023-08-17T09:00:21;1020.8;;;29.3;56.5
54439;BME280;40347;53.848;27.498;2023-08-17T09:05:44;1020.8;;;29.3;56.4
54439;BME280;40347;53.848;27.498;2023-08-17T09:10:34;1020.8;;;29.3;56
54439;BME280;40347;53.848;27.498;2023-08-17T09:15:22;1020.8;;;29.4;56
54439;BME280;40347;53.848;27.498;2023-08-17T09:20:34;1020.8;;;29.4;55.8
54439;BME280;40347;53.848;27.498;2023-08-17T09:25:44;1020.8;;;29.4;55.6
54439;BME280;40347;53.848;27.498;2023-08-17T09:31:05;1020.8;;;29.4;55.6
54439;BME280;40347;53.848;27.498;2023-08-17T09:35:35;1020.7;;;29.4;55
54439;BME280;40347;53.848;27.498;2023-08-17T09:40:35;1020.8;;;29.4;55.2
54439;BME280;40347;53.848;27.498;2023-08-17T09:45:50;1020.8;;;29.5;55
54439;BME280;40347;53.848;27.498;2023-08-17T09:50:27;1020.8;;;29.5;55
54439;BME280;40347;53.848;27.498;2023-08-17T09:55:21;1020.8;;;29.6;55
54439;BME280;40347;53.848;27.498;2023-08-17T10:00:21;1020.8;;;29.6;54.8
54439;BME280;40347;53.848;27.498;2023-08-17T10:05:44;1020.9;;;29.7;54.8
54439;BME280;40347;53.848;27.498;2023-08-17T10:10:22;1020.8;;;29.6;54.3
54439;BME280;40347;53.848;27.498;2023-08-17T10:15:21;1020.8;;;29.7;54.4
54439;BME280;40347;53.848;27.498;2023-08-17T10:20:42;1020.8;;;29.6;54.4
54439;BME280;40347;53.848;27.498;2023-08-17T10:25:27;1020.8;;;29.7;54.5
54439;BME280;40347;53.848;27.498;2023-08-17T10:30:45;1020.8;;;29.7;54.3
54439;BME280;40347;53.848;27.498;2023-08-17T10:35:29;1020.7;;;29.8;54.4
54439;BME280;40347;53.848;27.498;2023-08-17T10:40:25;1020.7;;;29.8;54.4
54439;BME280;40347;53.848;27.498;2023-08-17T10:45:36;1020.7;;;29.9;54.3
54439;BME280;40347;53.848;27.498;2023-08-17T10:50:34;1020.7;;;29.9;53.9
54439;BME280;40347;53.848;27.498;2023-08-17T10:55:38;1020.7;;;29.9;53.9
54439;BME280;40347;53.848;27.498;2023-08-17T11:00:31;1020.6;;;29.9;53.9
54439;BME280;40347;53.848;27.498;2023-08-17T11:05:37;1020.6;;;29.9;53.9
54439;BME280;40347;53.848;27.498;2023-08-17T11:10:30;1020.6;;;29.9;53.9
54439;BME280;40347;53.848;27.498;2023-08-17T11:15:43;1020.6;;;30;53.7
54439;BME280;40347;53.848;27.498;2023-08-17T11:20:34;1020.5;;;30;53.1
54439;BME280;40347;53.848;27.498;2023-08-17T11:25:34;1020.5;;;30.1;53.1
54439;BME280;40347;53.848;27.498;2023-08-17T11:30:39;1020.5;;;30.1;53.3
54439;BME280;40347;53.848;27.498;2023-08-17T11:35:22;1020.5;;;30.1;53.4
54439;BME280;40347;53.848;27.498;2023-08-17T11:40:22;1020.4;;;30.3;53.2
54439;BME280;40347;53.848;27.498;2023-08-17T11:45:35;1020.4;;;30.3;53.4
54439;BME280;40347;53.848;27.498;2023-08-17T11:50:35;1020.4;;;30.3;53.4
54439;BME280;40347;53.848;27.498;2023-08-17T11:55:34;1020.4;;;30.2;53.2
54439;BME280;40347;53.848;27.498;2023-08-17T12:00:34;1020.3;;;30.2;53.1
54439;BME280;40347;53.848;27.498;2023-08-17T12:05:39;1020.3;;;30.2;52.9
54439;BME280;40347;53.848;27.498;2023-08-17T12:10:42;1020.3;;;30.3;52.6
54439;BME280;40347;53.848;27.498;2023-08-17T12:15:51;1020.3;;;30.4;52.5
54439;BME280;40347;53.848;27.498;2023-08-17T12:20:35;1020.3;;;30.4;52.6
54439;BME280;40347;53.848;27.498;2023-08-17T12:30:24;1020.2;;;30.4;52.7
54439;BME280;40347;53.848;27.498;2023-08-17T12:35:22;1020.2;;;30.3;51.8
54439;BME280;40347;53.848;27.498;2023-08-17T12:40:38;1020.1;;;30.3;51.5
54439;BME280;40347;53.848;27.498;2023-08-17T12:45:38;1020.1;;;30.4;51.5
54439;BME280;40347;53.848;27.498;2023-08-17T13:05:35;1020;;;30.4;51.5
54439;BME280;40347;53.848;27.498;2023-08-17T13:10:37;1020;;;30.5;51.4
54439;BME280;40347;53.848;27.498;2023-08-17T13:20:42;1020;;;30.6;51.8
54439;BME280;40347;53.848;27.498;2023-08-17T13:25:56;1019.9;;;30.6;51.8
54439;BME280;40347;53.848;27.498;2023-08-17T13:30:30;1019.9;;;30.6;51.6
54439;BME280;40347;53.848;27.498;2023-08-17T13:35:24;1019.8;;;30.6;51.7
54439;BME280;40347;53.848;27.498;2023-08-17T13:40:36;1019.8;;;30.5;51.7
54439;BME280;40347;53.848;27.498;2023-08-17T13:50:22;1019.8;;;30.6;51.4
54439;BME280;40347;53.848;27.498;2023-08-17T13:55:42;1019.7;;;30.7;51.5
54439;BME280;40347;53.848;27.498;2023-08-17T14:00:46;1019.7;;;30.7;51.2
54439;BME280;40347;53.848;27.498;2023-08-17T14:05:23;1019.8;;;30.6;51.1
54439;BME280;40347;53.848;27.498;2023-08-17T14:10:42;1019.7;;;30.5;51.4
54439;BME280;40347;53.848;27.498;2023-08-17T14:15:22;1019.8;;;30.5;51.6
54439;BME280;40347;53.848;27.498;2023-08-17T14:20:42;1019.8;;;30.3;51.7
54439;BME280;40347;53.848;27.498;2023-08-17T14:25:30;1019.7;;;30.2;51.5
54439;BME280;40347;53.848;27.498;2023-08-17T14:30:30;1019.7;;;30;52.2
54439;BME280;40347;53.848;27.498;2023-08-17T14:35:22;1019.7;;;29.8;52.3
54439;BME280;40347;53.848;27.498;2023-08-17T14:40:22;1019.7;;;29.8;52.3
54439;BME280;40347;53.848;27.498;2023-08-17T14:45:42;1019.6;;;29.7;51.8
54439;BME280;40347;53.848;27.498;2023-08-17T14:50:28;1019.6;;;29.5;51.4
54439;BME280;40347;53.848;27.498;2023-08-17T14:55:22;1019.6;;;29.5;51.8
54439;BME280;40347;53.848;27.498;2023-08-17T15:00:36;1019.5;;;29.4;51.8
54439;BME280;40347;53.848;27.498;2023-08-17T15:05:22;1019.5;;;29.3;52
54439;BME280;40347;53.848;27.498;2023-08-17T15:10:22;1019.5;;;29.2;51.9
54439;BME280;40347;53.848;27.498;2023-08-17T15:15:48;1019.5;;;29.2;52
54439;BME280;40347;53.848;27.498;2023-08-17T15:20:22;1019.4;;;29.1;52.5
54439;BME280;40347;53.848;27.498;2023-08-17T15:25:28;1019.4;;;29.1;52.7
54439;BME280;40347;53.848;27.498;2023-08-17T15:30:22;1019.4;;;29;53.1
54439;BME280;40347;53.848;27.498;2023-08-17T15:35:22;1019.3;;;28.9;53.3
54439;BME280;40347;53.848;27.498;2023-08-17T15:40:32;1019.4;;;28.8;54
54439;BME280;40347;53.848;27.498;2023-08-17T15:45:42;1019.4;;;28.8;54.1
54439;BME280;40347;53.848;27.498;2023-08-17T15:50:50;1019.3;;;28.6;54.9
54439;BME280;40347;53.848;27.498;2023-08-17T15:55:30;1019.3;;;28.6;54.8
54439;BME280;40347;53.848;27.498;2023-08-17T16:00:54;1019.3;;;28.4;55
54439;BME280;40347;53.848;27.498;2023-08-17T16:05:30;1019.3;;;28.4;54.5
54439;BME280;40347;53.848;27.498;2023-08-17T16:10:46;1019.4;;;28.3;54.8
54439;BME280;40347;53.848;27.498;2023-08-17T16:15:36;1019.4;;;28.3;55.2
54439;BME280;40347;53.848;27.498;2023-08-17T16:20:22;1019.4;;;28.2;55.8
54439;BME280;40347;53.848;27.498;2023-08-17T16:25:34;1019.4;;;28.1;56.3
54439;BME280;40347;53.848;27.498;2023-08-17T16:30:42;1019.4;;;28;56.3
54439;BME280;40347;53.848;27.498;2023-08-17T16:35:30;1019.4;;;28;55.9
54439;BME280;40347;53.848;27.498;2023-08-17T16:40:38;1019.4;;;27.9;56.7
54439;BME280;40347;53.848;27.498;2023-08-17T16:45:30;1019.5;;;27.9;57
54439;BME280;40347;53.848;27.498;2023-08-17T16:50:34;1019.5;;;27.8;57.4
54439;BME280;40347;53.848;27.498;2023-08-17T16:55:58;1019.5;;;27.8;57.3
54439;BME280;40347;53.848;27.498;2023-08-17T17:00:30;1019.5;;;27.6;57.8
54439;BME280;40347;53.848;27.498;2023-08-17T17:05:30;1019.5;;;27.4;58.3
54439;BME280;40347;53.848;27.498;2023-08-17T17:10:58;1019.5;;;27.3;58.8
54439;BME280;40347;53.848;27.498;2023-08-17T17:15:30;1019.5;;;27.2;59.2
54439;BME280;40347;53.848;27.498;2023-08-17T17:20:22;1019.5;;;27.1;59.8
54439;BME280;40347;53.848;27.498;2023-08-17T17:25:32;1019.6;;;26.9;60.3
54439;BME280;40347;53.848;27.498;2023-08-17T17:30:22;1019.6;;;26.8;60.9
54439;BME280;40347;53.848;27.498;2023-08-17T17:35:30;1019.7;;;26.6;61.5
54439;BME280;40347;53.848;27.498;2023-08-17T17:40:34;1019.7;;;26.4;62.2
54439;BME280;40347;53.848;27.498;2023-08-17T17:45:23;1019.7;;;26.3;62.5
54439;BME280;40347;53.848;27.498;2023-08-17T17:50:22;1019.8;;;26.3;62.7
54439;BME280;40347;53.848;27.498;2023-08-17T17:55:36;1019.8;;;26.1;63.4
54439;BME280;40347;53.848;27.498;2023-08-17T18:00:42;1019.8;;;26;64.1
54439;BME280;40347;53.848;27.498;2023-08-17T18:05:22;1019.9;;;25.8;64.8
54439;BME280;40347;53.848;27.498;2023-08-17T18:10:22;1019.9;;;25.7;65.1
54439;BME280;40347;53.848;27.498;2023-08-17T18:15:30;1020;;;25.7;65.3
54439;BME280;40347;53.848;27.498;2023-08-17T18:20:32;1020;;;25.6;65.9
54439;BME280;40347;53.848;27.498;2023-08-17T18:25:58;1020;;;25.5;65.9
54439;BME280;40347;53.848;27.498;2023-08-17T18:30:36;1020;;;25.4;66.3
54439;BME280;40347;53.848;27.498;2023-08-17T18:35:42;1020;;;25.3;66.8
54439;BME280;40347;53.848;27.498;2023-08-17T18:40:46;1020;;;25.2;67.2
54439;BME280;40347;53.848;27.498;2023-08-17T18:45:22;1020;;;25.2;67.4
54439;BME280;40347;53.848;27.498;2023-08-17T18:50:22;1020;;;25.1;67.5
54439;BME280;40347;53.848;27.498;2023-08-17T18:55:22;1020;;;25;67.8
54439;BME280;40347;53.848;27.498;2023-08-17T19:00:22;1020;;;24.9;68.3
54439;BME280;40347;53.848;27.498;2023-08-17T19:05:48;1020.1;;;24.8;68.6
54439;BME280;40347;53.848;27.498;2023-08-17T19:10:32;1020;;;24.8;68.6
54439;BME280;40347;53.848;27.498;2023-08-17T19:15:22;1020;;;24.8;68.7
54439;BME280;40347;53.848;27.498;2023-08-17T19:20:22;1020.1;;;24.7;69
54439;BME280;40347;53.848;27.498;2023-08-17T19:25:22;1020;;;24.6;69.1
54439;BME280;40347;53.848;27.498;2023-08-17T19:30:22;1020.1;;;24.5;69.5
54439;BME280;40347;53.848;27.498;2023-08-17T19:35:36;1020.1;;;24.5;69.7
54439;BME280;40347;53.848;27.498;2023-08-17T19:41:08;1020.1;;;24.4;70.1
54439;BME280;40347;53.848;27.498;2023-08-17T19:45:22;1020.2;;;24.4;70
54439;BME280;40347;53.848;27.498;2023-08-17T19:50:30;1020.2;;;24.3;70
54439;BME280;40347;53.848;27.498;2023-08-17T19:55:38;1020.2;;;24.3;69.9
54439;BME280;40347;53.848;27.498;2023-08-17T20:00:36;1020.2;;;24.2;70.3
54439;BME280;40347;53.848;27.498;2023-08-17T20:05:36;1020.2;;;24.1;70.6
54439;BME280;40347;53.848;27.498;2023-08-17T20:10:36;1020.2;;;24.1;70.7
54439;BME280;40347;53.848;27.498;2023-08-17T20:15:42;1020.3;;;24.1;70.7
54439;BME280;40347;53.848;27.498;2023-08-17T20:20:51;1020.2;;;24;71
54439;BME280;40347;53.848;27.498;2023-08-17T20:25:30;1020.3;;;23.9;71.1
54439;BME280;40347;53.848;27.498;2023-08-17T20:30:40;1020.3;;;23.8;71.3
54439;BME280;40347;53.848;27.498;2023-08-17T20:35:49;1020.3;;;23.8;71.4
54439;BME280;40347;53.848;27.498;2023-08-17T20:40:22;1020.3;;;23.7;71.7
54439;BME280;40347;53.848;27.498;2023-08-17T20:45:42;1020.3;;;23.6;71.6
54439;BME280;40347;53.848;27.498;2023-08-17T20:50:22;1020.3;;;23.6;71.7
54439;BME280;40347;53.848;27.498;2023-08-17T20:55:42;1020.3;;;23.5;71.8
54439;BME280;40347;53.848;27.498;2023-08-17T21:00:30;1020.4;;;23.5;72.1
54439;BME280;40347;53.848;27.498;2023-08-17T21:05:32;1020.4;;;23.4;72.4
54439;BME280;40347;53.848;27.498;2023-08-17T21:10:58;1020.4;;;23.4;72.4
54439;BME280;40347;53.848;27.498;2023-08-17T21:15:36;1020.5;;;23.4;72
54439;BME280;40347;53.848;27.498;2023-08-17T21:20:22;1020.5;;;23.3;72.1
54439;BME280;40347;53.848;27.498;2023-08-17T21:25:30;1020.5;;;23.2;72.2
54439;BME280;40347;53.848;27.498;2023-08-17T21:30:34;1020.6;;;23.2;72.5
54439;BME280;40347;53.848;27.498;2023-08-17T21:35:56;1020.6;;;23.2;72.5
54439;BME280;40347;53.848;27.498;2023-08-17T21:40:28;1020.6;;;23.2;72.6
54439;BME280;40347;53.848;27.498;2023-08-17T21:45:22;1020.6;;;23.2;72.5
54439;BME280;40347;53.848;27.498;2023-08-17T21:50:48;1020.6;;;23.1;72.8
54439;BME280;40347;53.848;27.498;2023-08-17T21:55:22;1020.7;;;23;73
54439;BME280;40347;53.848;27.498;2023-08-17T22:00:30;1020.6;;;23;73.4
54439;BME280;40347;53.848;27.498;2023-08-17T22:05:22;1020.6;;;23;73.3
54439;BME280;40347;53.848;27.498;2023-08-17T22:10:44;1020.6;;;23;73.2
54439;BME280;40347;53.848;27.498;2023-08-17T22:15:42;1020.7;;;23;72.9
54439;BME280;40347;53.848;27.498;2023-08-17T22:20:56;1020.7;;;22.9;73.3
54439;BME280;40347;53.848;27.498;2023-08-17T22:25:40;1020.7;;;22.9;73.4
54439;BME280;40347;53.848;27.498;2023-08-17T22:30:34;1020.7;;;22.9;73.7
54439;BME280;40347;53.848;27.498;2023-08-17T22:35:54;1020.7;;;22.9;73.8
54439;BME280;40347;53.848;27.498;2023-08-17T22:40:22;1020.7;;;22.8;74.1
54439;BME280;40347;53.848;27.498;2023-08-17T22:45:32;1020.7;;;22.8;74
54439;BME280;40347;53.848;27.498;2023-08-17T22:50:36;1020.7;;;22.7;74.2
54439;BME280;40347;53.848;27.498;2023-08-17T22:55:22;1020.7;;;22.6;74.5
54439;BME280;40347;53.848;27.498;2023-08-17T23:00:58;1020.7;;;22.7;74.9
54439;BME280;40347;53.848;27.498;2023-08-17T23:05:34;1020.7;;;22.6;75.2
54439;BME280;40347;53.848;27.498;2023-08-17T23:10:56;1020.8;;;22.6;75.3
54439;BME280;40347;53.848;27.498;2023-08-17T23:15:28;1020.8;;;22.5;75.3
54439;BME280;40347;53.848;27.498;2023-08-17T23:20:38;1020.9;;;22.5;75.5
54439;BME280;40347;53.848;27.498;2023-08-17T23:25:22;1020.9;;;22.4;75.6
54439;BME280;40347;53.848;27.498;2023-08-17T23:30:22;1020.9;;;22.4;75.9
54439;BME280;40347;53.848;27.498;2023-08-17T23:35:22;1021;;;22.4;76
54439;BME280;40347;53.848;27.498;2023-08-17T23:40:34;1021;;;22.3;76.1
54439;BME280;40347;53.848;27.498;2023-08-17T23:45:44;1021;;;22.3;76
54439;BME280;40347;53.848;27.498;2023-08-17T23:50:22;1021;;;22.3;76.3
54439;BME280;40347;53.848;27.498;2023-08-17T23:55:22;1021;;;22.2;76.4
